Time,TemperatureF,DewpointF,PressureIn,WindDirection,WindDirectionDegrees,WindSpeedMPH,WindSpeedGustMPH,Humidity,HourlyPrecipIn,Conditions,Clouds,dailyrainin,SolarRadiationWatts/m^2,SoftwareType,DateUTC
2013-06-13 00:02:00,71.8,69.6,29.81,West,265,0.0,0.0,90,0.00,,,0.00,0.0,meteohub,2013-06-13 04:02:00,
2013-06-13 00:03:00,71.8,69.6,29.81,West,265,0.0,0.0,90,0.00,,,0.00,0.0,meteohub,2013-06-13 04:03:00,
2013-06-13 00:06:00,71.6,69.4,29.81,West,265,0.0,0.0,90,0.00,,,0.00,0.0,meteohub,2013-06-13 04:06:00,
2013-06-13 00:12:00,71.6,69.4,29.81,West,265,0.0,0.0,90,0.00,,,0.00,0.0,meteohub,2013-06-13 04:12:00,
2013-06-13 00:17:00,71.4,69.6,29.81,West,265,0.0,0.0,91,0.00,,,0.00,0.0,meteohub,2013-06-13 04:17:00,
2013-06-13 00:22:00,71.2,69.4,29.81,West,265,0.0,0.0,91,0.00,,,0.00,0.0,meteohub,2013-06-13 04:22:00,
2013-06-13 00:24:00,71.1,69.3,29.81,West,265,0.0,0.0,91,0.00,,,0.00,0.0,meteohub,2013-06-13 04:24:00,
2013-06-13 00:30:00,71.1,69.3,29.81,West,265,1.0,2.0,91,0.00,,,0.00,0.0,meteohub,2013-06-13 04:30:00,
2013-06-13 00:36:00,71.1,69.3,29.81,West,267,0.0,3.0,91,0.00,,,0.00,0.0,meteohub,2013-06-13 04:36:00,
2013-06-13 00:42:00,71.1,69.3,29.81,West,267,0.0,3.0,91,0.00,,,0.00,0.0,meteohub,2013-06-13 04:42:00,
2013-06-13 00:47:00,70.9,69.1,29.81,West,267,0.0,2.0,91,0.00,,,0.00,0.0,meteohub,2013-06-13 04:47:00,
2013-06-13 00:52:00,70.9,69.1,29.81,West,267,0.0,1.0,91,0.00,,,0.00,0.0,meteohub,2013-06-13 04:52:00,
2013-06-13 00:57:00,70.9,69.1,29.81,West,267,0.0,1.0,91,0.00,,,0.00,0.0,meteohub,2013-06-13 04:57:00,
2013-06-13 01:04:00,70.7,68.9,29.80,West,267,0.0,0.0,91,0.00,,,0.00,0.0,meteohub,2013-06-13 05:04:00,
2013-06-13 01:10:00,70.7,68.9,29.80,West,268,0.0,0.0,91,0.00,,,0.00,0.0,meteohub,2013-06-13 05:10:00,
2013-06-13 01:16:00,70.5,68.7,29.80,West,268,0.0,0.0,91,0.00,,,0.00,0.0,meteohub,2013-06-13 05:16:00,
2013-06-13 01:22:00,70.3,68.5,29.80,West,268,0.0,0.0,91,0.00,,,0.00,0.0,meteohub,2013-06-13 05:22:00,
2013-06-13 01:27:00,70.2,68.4,29.79,West,268,0.0,0.0,91,0.00,,,0.00,0.0,meteohub,2013-06-13 05:27:00,
2013-06-13 01:32:00,70.2,68.4,29.78,West,268,0.0,0.0,91,0.00,,,0.00,0.0,meteohub,2013-06-13 05:32:00,
2013-06-13 01:37:00,70.0,68.2,29.79,West,268,0.0,0.0,91,0.00,,,0.00,0.0,meteohub,2013-06-13 05:37:00,
2013-06-13 01:42:00,70.0,68.2,29.78,West,268,0.0,0.0,91,0.00,,,0.00,0.0,meteohub,2013-06-13 05:42:00,
2013-06-13 01:47:00,70.0,68.2,29.78,West,268,0.0,0.0,91,0.00,,,0.00,0.0,meteohub,2013-06-13 05:47:00,
2013-06-13 01:52:00,69.8,68.0,29.79,West,268,0.0,0.0,91,0.00,,,0.00,0.0,meteohub,2013-06-13 05:52:00,
2013-06-13 01:57:00,69.8,68.0,29.78,West,268,0.0,0.0,91,0.00,,,0.00,0.0,meteohub,2013-06-13 05:57:00,
2013-06-13 02:02:00,69.8,68.0,29.78,West,268,0.0,0.0,91,0.00,,,0.00,0.0,meteohub,2013-06-13 06:02:00,
2013-06-13 02:07:00,69.8,68.0,29.78,West,268,0.0,0.0,91,0.00,,,0.00,0.0,meteohub,2013-06-13 06:07:00,
2013-06-13 02:12:00,69.8,68.4,29.78,West,268,1.0,0.0,92,0.00,,,0.00,0.0,meteohub,2013-06-13 06:12:00,
2013-06-13 02:17:00,69.8,68.4,29.78,West,268,0.0,2.0,92,0.00,,,0.00,0.0,meteohub,2013-06-13 06:17:00,
2013-06-13 02:22:00,69.8,68.4,29.77,West,268,0.0,2.0,92,0.00,,,0.00,0.0,meteohub,2013-06-13 06:22:00,
2013-06-13 02:27:00,69.8,68.4,29.77,West,268,0.0,2.0,92,0.00,,,0.00,0.0,meteohub,2013-06-13 06:27:00,
2013-06-13 02:32:00,69.6,68.2,29.77,West,268,0.0,1.0,92,0.00,,,0.00,0.0,meteohub,2013-06-13 06:32:00,
2013-06-13 02:37:00,69.4,67.6,29.77,West,268,0.0,2.0,91,0.00,,,0.00,0.0,meteohub,2013-06-13 06:37:00,
2013-06-13 02:42:00,69.3,67.8,29.77,West,268,0.0,2.0,92,0.00,,,0.00,0.0,meteohub,2013-06-13 06:42:00,
2013-06-13 02:47:00,69.3,67.8,29.78,West,268,2.0,2.0,92,0.00,,,0.00,0.0,meteohub,2013-06-13 06:47:00,
2013-06-13 02:52:00,69.4,68.0,29.77,West,268,1.0,3.0,92,0.00,,,0.00,0.0,meteohub,2013-06-13 06:52:00,
2013-06-13 02:57:00,69.6,68.2,29.77,West,268,0.0,3.0,92,0.00,,,0.00,0.0,meteohub,2013-06-13 06:57:00,
2013-06-13 03:02:00,69.6,68.2,29.77,West,268,1.0,3.0,92,0.00,,,0.00,0.0,meteohub,2013-06-13 07:02:00,
2013-06-13 03:07:00,69.6,68.2,29.77,West,268,0.0,3.0,92,0.00,,,0.00,0.0,meteohub,2013-06-13 07:07:00,
2013-06-13 03:12:00,69.8,68.4,29.77,West,268,0.0,3.0,92,0.00,,,0.00,0.0,meteohub,2013-06-13 07:12:00,
2013-06-13 03:17:00,69.6,68.2,29.76,West,268,0.0,3.0,92,0.00,,,0.00,0.0,meteohub,2013-06-13 07:17:00,
2013-06-13 03:22:00,69.6,68.2,29.76,West,268,0.0,2.0,92,0.00,,,0.00,0.0,meteohub,2013-06-13 07:22:00,
2013-06-13 03:27:00,69.6,68.2,29.75,West,268,0.0,0.0,92,0.00,,,0.00,0.0,meteohub,2013-06-13 07:27:00,
2013-06-13 03:32:00,69.4,68.0,29.76,West,268,0.0,0.0,92,0.00,,,0.00,0.0,meteohub,2013-06-13 07:32:00,
2013-06-13 03:37:00,69.4,68.0,29.75,West,268,0.0,0.0,92,0.00,,,0.00,0.0,meteohub,2013-06-13 07:37:00,
2013-06-13 03:42:00,69.3,67.8,29.75,West,268,0.0,1.0,92,0.00,,,0.00,0.0,meteohub,2013-06-13 07:42:00,
2013-06-13 03:47:00,69.3,67.8,29.75,West,268,0.0,1.0,92,0.00,,,0.00,0.0,meteohub,2013-06-13 07:47:00,
2013-06-13 03:52:00,69.1,67.6,29.75,West,268,0.0,2.0,92,0.00,,,0.00,0.0,meteohub,2013-06-13 07:52:00,
2013-06-13 04:00:00,69.1,67.6,29.75,West,268,0.0,2.0,92,0.00,,,0.00,0.0,meteohub,2013-06-13 08:00:00,
2013-06-13 04:06:00,68.9,67.5,29.75,West,268,0.0,2.0,92,0.00,,,0.00,0.0,meteohub,2013-06-13 08:06:00,
2013-06-13 04:12:00,68.9,67.5,29.74,West,268,0.0,2.0,92,0.00,,,0.00,0.0,meteohub,2013-06-13 08:12:00,
2013-06-13 04:17:00,68.9,67.5,29.73,West,268,0.0,2.0,92,0.00,,,0.00,0.0,meteohub,2013-06-13 08:17:00,
2013-06-13 04:22:00,68.9,67.5,29.73,NW,319,0.0,3.0,92,0.00,,,0.00,0.0,meteohub,2013-06-13 08:22:00,
2013-06-13 04:27:00,68.7,67.3,29.73,South,177,0.0,3.0,92,0.00,,,0.00,0.0,meteohub,2013-06-13 08:27:00,
2013-06-13 04:32:00,68.5,67.1,29.73,South,177,0.0,3.0,92,0.00,,,0.00,0.0,meteohub,2013-06-13 08:32:00,
2013-06-13 04:37:00,68.4,66.9,29.73,South,177,0.0,2.0,92,0.00,,,0.00,0.0,meteohub,2013-06-13 08:37:00,
2013-06-13 04:42:00,68.2,66.7,29.72,South,177,0.0,2.0,92,0.00,,,0.00,0.0,meteohub,2013-06-13 08:42:00,
2013-06-13 04:47:00,68.4,66.9,29.73,South,177,0.0,2.0,92,0.00,,,0.00,0.0,meteohub,2013-06-13 08:47:00,
2013-06-13 04:52:00,68.4,66.9,29.72,South,177,0.0,2.0,92,0.00,,,0.00,0.0,meteohub,2013-06-13 08:52:00,
2013-06-13 04:57:00,68.2,66.7,29.72,South,177,0.0,2.0,92,0.00,,,0.00,0.0,meteohub,2013-06-13 08:57:00,
2013-06-13 05:02:00,68.2,66.7,29.72,South,177,0.0,1.0,92,0.00,,,0.00,0.0,meteohub,2013-06-13 09:02:00,
2013-06-13 05:07:00,68.2,66.7,29.71,South,177,0.0,0.0,92,0.00,,,0.00,0.0,meteohub,2013-06-13 09:07:00,
2013-06-13 05:12:00,68.0,66.6,29.71,South,177,0.0,0.0,92,0.00,,,0.00,0.0,meteohub,2013-06-13 09:12:00,
2013-06-13 05:17:00,68.0,66.6,29.71,South,177,0.0,0.0,92,0.00,,,0.00,0.0,meteohub,2013-06-13 09:17:00,
2013-06-13 05:22:00,68.0,66.6,29.72,SE,133,2.0,2.0,92,0.00,,,0.00,0.0,meteohub,2013-06-13 09:22:00,
2013-06-13 05:27:00,68.0,66.6,29.72,SE,133,0.0,2.0,92,0.00,,,0.00,0.0,meteohub,2013-06-13 09:27:00,
2013-06-13 05:32:00,68.2,66.7,29.71,SE,125,0.0,2.0,92,0.00,,,0.00,0.0,meteohub,2013-06-13 09:32:00,
2013-06-13 05:37:00,68.2,66.7,29.71,SE,125,0.0,4.0,92,0.00,,,0.00,0.0,meteohub,2013-06-13 09:37:00,
2013-06-13 05:42:00,68.0,66.6,29.70,SE,125,0.0,4.0,92,0.00,,,0.00,0.0,meteohub,2013-06-13 09:42:00,
2013-06-13 05:49:00,68.0,66.6,29.71,SE,125,0.0,2.0,92,0.00,,,0.00,0.0,meteohub,2013-06-13 09:49:00,
2013-06-13 05:55:00,68.2,66.7,29.70,SE,125,0.0,2.0,92,0.00,,,0.00,0.0,meteohub,2013-06-13 09:55:00,
2013-06-13 06:01:00,68.2,66.7,29.70,SE,125,0.0,2.0,92,0.00,,,0.00,0.0,meteohub,2013-06-13 10:01:00,
2013-06-13 06:07:00,68.5,67.3,29.70,SE,125,0.0,2.0,93,0.00,,,0.00,7.0,meteohub,2013-06-13 10:07:00,
2013-06-13 06:12:00,68.9,67.6,29.70,SE,125,0.0,2.0,93,0.00,,,0.00,11.0,meteohub,2013-06-13 10:12:00,
2013-06-13 06:17:00,68.9,67.6,29.70,SE,125,0.0,2.0,93,0.00,,,0.00,14.0,meteohub,2013-06-13 10:17:00,
2013-06-13 06:22:00,69.1,67.8,29.70,SE,125,0.0,2.0,93,0.00,,,0.00,19.0,meteohub,2013-06-13 10:22:00,
2013-06-13 06:27:00,69.3,68.0,29.69,SE,125,1.0,2.0,93,0.00,,,0.00,23.0,meteohub,2013-06-13 10:27:00,
2013-06-13 06:32:00,69.6,68.4,29.69,SE,125,0.0,2.0,93,0.00,,,0.00,28.0,meteohub,2013-06-13 10:32:00,
2013-06-13 06:37:00,69.4,68.2,29.68,SE,125,0.0,2.0,93,0.00,,,0.00,32.0,meteohub,2013-06-13 10:37:00,
2013-06-13 06:42:00,69.6,68.4,29.69,SE,125,0.0,1.0,93,0.00,,,0.00,33.0,meteohub,2013-06-13 10:42:00,
2013-06-13 06:47:00,69.4,68.0,29.69,SE,126,0.0,1.0,92,0.00,,,0.00,35.0,meteohub,2013-06-13 10:47:00,
2013-06-13 06:52:00,69.6,68.2,29.68,SE,126,0.0,1.0,92,0.00,,,0.00,39.0,meteohub,2013-06-13 10:52:00,
2013-06-13 06:57:00,69.6,68.2,29.68,SE,126,0.0,1.0,92,0.00,,,0.00,40.0,meteohub,2013-06-13 10:57:00,
2013-06-13 07:02:00,69.8,68.4,29.69,SE,126,0.0,1.0,92,0.00,,,0.00,44.0,meteohub,2013-06-13 11:02:00,
2013-06-13 07:07:00,69.8,68.4,29.69,SE,126,0.0,0.0,92,0.00,,,0.00,49.0,meteohub,2013-06-13 11:07:00,
2013-06-13 07:12:00,69.8,68.5,29.68,SE,126,0.0,0.0,93,0.00,,,0.00,56.0,meteohub,2013-06-13 11:12:00,
2013-06-13 07:17:00,70.0,68.7,29.69,SE,126,0.0,3.0,93,0.00,,,0.00,58.0,meteohub,2013-06-13 11:17:00,
2013-06-13 07:22:00,70.0,68.5,29.69,SE,126,0.0,3.0,92,0.00,,,0.00,67.0,meteohub,2013-06-13 11:22:00,
2013-06-13 07:27:00,70.2,68.7,29.69,SSE,157,2.0,2.0,92,0.00,,,0.00,72.0,meteohub,2013-06-13 11:27:00,
2013-06-13 07:32:00,70.7,69.4,29.69,SE,145,1.0,2.0,93,0.00,,,0.00,84.0,meteohub,2013-06-13 11:32:00,
2013-06-13 07:37:00,70.9,69.4,29.69,SE,145,0.0,4.0,92,0.00,,,0.00,93.0,meteohub,2013-06-13 11:37:00,
2013-06-13 07:42:00,71.2,69.8,29.68,SSW,196,1.0,4.0,92,0.00,,,0.00,105.0,meteohub,2013-06-13 11:42:00,
2013-06-13 07:47:00,71.6,70.2,29.68,South,183,3.0,5.0,92,0.00,,,0.00,116.0,meteohub,2013-06-13 11:47:00,
2013-06-13 07:52:00,72.0,70.5,29.68,South,180,2.0,5.0,92,0.00,,,0.00,127.0,meteohub,2013-06-13 11:52:00,
2013-06-13 07:57:00,72.3,70.5,29.68,South,180,0.0,5.0,91,0.00,,,0.00,142.0,meteohub,2013-06-13 11:57:00,
2013-06-13 08:02:00,72.5,70.7,29.68,SSE,164,0.0,5.0,91,0.00,,,0.00,171.0,meteohub,2013-06-13 12:02:00,
2013-06-13 08:07:00,72.9,70.7,29.68,SE,146,2.0,6.0,90,0.00,,,0.00,243.0,meteohub,2013-06-13 12:07:00,
2013-06-13 08:12:00,73.6,71.1,29.68,SSW,192,2.0,6.0,89,0.00,,,0.00,227.0,meteohub,2013-06-13 12:12:00,
2013-06-13 08:17:00,74.1,71.2,29.68,South,182,0.0,6.0,88,0.00,,,0.00,186.0,meteohub,2013-06-13 12:17:00,
2013-06-13 08:22:00,74.5,71.4,29.68,South,174,0.0,6.0,87,0.00,,,0.00,176.0,meteohub,2013-06-13 12:22:00,
2013-06-13 08:27:00,75.2,71.8,29.68,South,171,0.0,4.0,86,0.00,,,0.00,197.0,meteohub,2013-06-13 12:27:00,
2013-06-13 08:32:00,75.6,71.8,29.68,South,184,0.0,4.0,85,0.00,,,0.00,171.0,meteohub,2013-06-13 12:32:00,
2013-06-13 08:37:00,76.1,72.0,29.68,SE,134,0.0,6.0,84,0.00,,,0.00,172.0,meteohub,2013-06-13 12:37:00,
2013-06-13 08:42:00,76.3,72.1,29.68,WNW,290,4.0,6.0,84,0.00,,,0.00,148.0,meteohub,2013-06-13 12:42:00,
2013-06-13 08:47:00,76.5,71.6,29.68,SE,140,4.0,6.0,82,0.00,,,0.00,151.0,meteohub,2013-06-13 12:47:00,
2013-06-13 08:52:00,76.8,71.6,29.68,SSW,202,3.0,9.0,81,0.00,,,0.00,176.0,meteohub,2013-06-13 12:52:00,
2013-06-13 08:57:00,77.0,71.4,29.68,SSE,148,0.0,9.0,80,0.00,,,0.00,186.0,meteohub,2013-06-13 12:57:00,
2013-06-13 09:02:00,77.2,71.6,29.68,NNW,340,3.0,9.0,80,0.00,,,0.00,186.0,meteohub,2013-06-13 13:02:00,
2013-06-13 09:07:00,77.4,71.8,29.68,SE,144,0.0,6.0,80,0.00,,,0.00,200.0,meteohub,2013-06-13 13:07:00,
2013-06-13 09:12:00,77.5,72.0,29.67,SE,136,2.0,7.0,80,0.00,,,0.00,248.0,meteohub,2013-06-13 13:12:00,
2013-06-13 09:17:00,77.9,72.3,29.68,SE,136,1.0,7.0,80,0.00,,,0.00,385.0,meteohub,2013-06-13 13:17:00,
2013-06-13 09:22:00,78.3,72.3,29.68,South,181,3.0,7.0,79,0.00,,,0.00,425.0,meteohub,2013-06-13 13:22:00,
2013-06-13 09:27:00,79.0,73.0,29.68,NE,42,0.0,7.0,79,0.00,,,0.00,461.0,meteohub,2013-06-13 13:27:00,
2013-06-13 09:32:00,79.5,73.9,29.69,NE,56,2.0,7.0,80,0.00,,,0.00,664.0,meteohub,2013-06-13 13:32:00,
2013-06-13 09:37:00,80.2,73.6,29.68,East,94,3.0,7.0,77,0.00,,,0.00,744.0,meteohub,2013-06-13 13:37:00,
2013-06-13 09:42:00,81.0,73.8,29.68,ESE,111,1.0,3.0,76,0.00,,,0.00,671.0,meteohub,2013-06-13 13:42:00,
2013-06-13 09:47:00,81.9,73.2,29.68,ESE,111,0.0,4.0,72,0.00,,,0.00,926.0,meteohub,2013-06-13 13:47:00,
2013-06-13 09:52:00,82.8,74.8,29.68,ESE,111,0.0,4.0,74,0.00,,,0.00,396.0,meteohub,2013-06-13 13:52:00,
2013-06-13 09:57:00,83.3,75.4,29.68,ESE,109,2.0,4.0,74,0.00,,,0.00,939.0,meteohub,2013-06-13 13:57:00,
2013-06-13 10:02:00,83.8,75.9,29.69,ESE,109,0.0,5.0,74,0.00,,,0.00,759.0,meteohub,2013-06-13 14:02:00,
2013-06-13 10:07:00,84.0,74.8,29.70,ENE,65,4.0,5.0,71,0.00,,,0.00,120.0,meteohub,2013-06-13 14:07:00,
2013-06-13 10:12:00,83.1,70.2,29.70,WSW,242,2.0,10.0,62,0.00,,,0.00,144.0,meteohub,2013-06-13 14:12:00,
2013-06-13 10:17:00,82.2,67.5,29.68,SE,139,1.0,10.0,58,0.00,,,0.00,338.0,meteohub,2013-06-13 14:17:00,
2013-06-13 10:22:00,82.0,66.2,29.67,SE,125,2.0,10.0,56,0.00,,,0.00,1055.0,meteohub,2013-06-13 14:22:00,
2013-06-13 10:28:00,82.2,66.4,29.68,NW,311,2.0,10.0,56,0.00,,,0.00,318.0,meteohub,2013-06-13 14:28:00,
2013-06-13 10:34:00,82.0,68.7,29.67,NNE,17,0.0,10.0,61,0.00,,,0.00,330.0,meteohub,2013-06-13 14:34:00,
2013-06-13 10:41:00,82.2,67.8,29.67,West,267,1.0,10.0,59,0.00,,,0.00,330.0,meteohub,2013-06-13 14:41:00,
2013-06-13 10:47:00,82.4,66.6,29.66,WSW,252,0.0,4.0,56,0.00,,,0.00,928.0,meteohub,2013-06-13 14:47:00,
2013-06-13 10:52:00,82.6,67.8,29.66,WSW,251,2.0,5.0,58,0.00,,,0.00,408.0,meteohub,2013-06-13 14:52:00,
2013-06-13 10:57:00,82.8,69.8,29.65,WSW,251,1.0,5.0,62,0.00,,,0.00,350.0,meteohub,2013-06-13 14:57:00,
2013-06-13 11:02:00,82.8,70.7,29.64,WSW,251,1.0,5.0,64,0.00,,,0.00,1071.0,meteohub,2013-06-13 15:02:00,
2013-06-13 11:07:00,82.9,69.1,29.64,NW,308,1.0,4.0,60,0.00,,,0.00,1139.0,meteohub,2013-06-13 15:07:00,
2013-06-13 11:12:00,83.3,68.0,29.64,WNW,290,1.0,4.0,57,0.00,,,0.00,411.0,meteohub,2013-06-13 15:12:00,
2013-06-13 11:17:00,83.8,68.4,29.63,NNE,19,2.0,4.0,57,0.00,,,0.00,1141.0,meteohub,2013-06-13 15:17:00,
2013-06-13 11:22:00,84.4,67.5,29.62,SSE,155,2.0,3.0,54,0.00,,,0.00,1125.0,meteohub,2013-06-13 15:22:00,
2013-06-13 11:27:00,84.6,67.6,29.62,SSE,159,3.0,8.0,54,0.00,,,0.00,974.0,meteohub,2013-06-13 15:27:00,
2013-06-13 11:32:00,84.6,68.2,29.62,South,184,1.0,8.0,55,0.00,,,0.00,471.0,meteohub,2013-06-13 15:32:00,
2013-06-13 11:37:00,84.6,68.5,29.62,SSE,148,1.0,8.0,56,0.00,,,0.00,434.0,meteohub,2013-06-13 15:37:00,
2013-06-13 11:42:00,84.9,68.9,29.61,ESE,123,0.0,5.0,56,0.00,,,0.00,473.0,meteohub,2013-06-13 15:42:00,
2013-06-13 11:47:00,84.9,68.9,29.60,South,175,4.0,5.0,56,0.00,,,0.00,469.0,meteohub,2013-06-13 15:47:00,
2013-06-13 11:52:00,84.9,70.0,29.59,ESE,121,3.0,10.0,58,0.00,,,0.00,949.0,meteohub,2013-06-13 15:52:00,
2013-06-13 11:57:00,85.1,68.7,29.59,SSW,193,3.0,10.0,55,0.00,,,0.00,977.0,meteohub,2013-06-13 15:57:00,
2013-06-13 12:02:00,85.3,69.3,29.59,SSE,157,3.0,10.0,56,0.00,,,0.00,905.0,meteohub,2013-06-13 16:02:00,
2013-06-13 12:07:00,85.8,70.3,29.59,South,170,5.0,7.0,57,0.00,,,0.00,877.0,meteohub,2013-06-13 16:07:00,
2013-06-13 12:12:00,86.0,70.9,29.59,SSE,161,2.0,7.0,58,0.00,,,0.00,946.0,meteohub,2013-06-13 16:12:00,
2013-06-13 12:17:00,86.4,70.9,29.58,South,186,2.0,7.0,57,0.00,,,0.00,942.0,meteohub,2013-06-13 16:17:00,
2013-06-13 12:22:00,86.9,70.9,29.59,WSW,257,1.0,7.0,56,0.00,,,0.00,902.0,meteohub,2013-06-13 16:22:00,
2013-06-13 12:27:00,87.3,71.6,29.59,ENE,75,4.0,6.0,57,0.00,,,0.00,988.0,meteohub,2013-06-13 16:27:00,
2013-06-13 12:32:00,87.6,72.0,29.58,NNE,32,2.0,7.0,57,0.00,,,0.00,860.0,meteohub,2013-06-13 16:32:00,
2013-06-13 12:37:00,87.8,72.7,29.58,SE,144,1.0,11.0,58,0.00,,,0.00,1007.0,meteohub,2013-06-13 16:37:00,
2013-06-13 12:42:00,88.0,72.9,29.57,SSW,194,1.0,11.0,58,0.00,,,0.00,898.0,meteohub,2013-06-13 16:42:00,
2013-06-13 12:47:00,88.2,73.0,29.57,SSW,200,3.0,12.0,58,0.00,,,0.00,1090.0,meteohub,2013-06-13 16:47:00,
2013-06-13 12:52:00,88.5,74.8,29.57,South,181,1.0,12.0,61,0.00,,,0.00,424.0,meteohub,2013-06-13 16:52:00,
2013-06-13 12:57:00,88.2,73.9,29.57,West,267,5.0,12.0,60,0.00,,,0.00,290.0,meteohub,2013-06-13 16:57:00,
2013-06-13 13:02:00,87.6,73.9,29.58,SSE,167,7.0,15.0,61,0.00,,,0.00,462.0,meteohub,2013-06-13 17:02:00,
2013-06-13 13:07:00,87.6,73.9,29.57,SSW,198,8.0,15.0,61,0.00,,,0.00,803.0,meteohub,2013-06-13 17:07:00,
2013-06-13 13:12:00,87.4,74.1,29.57,SW,216,2.0,14.0,62,0.00,,,0.00,350.0,meteohub,2013-06-13 17:12:00,
2013-06-13 13:17:00,87.3,73.9,29.57,SSW,205,1.0,14.0,62,0.00,,,0.00,1099.0,meteohub,2013-06-13 17:17:00,
2013-06-13 13:22:00,87.6,74.3,29.56,WNW,295,7.0,14.0,62,0.00,,,0.00,979.0,meteohub,2013-06-13 17:22:00,
2013-06-13 13:27:00,87.8,74.1,29.56,SSE,150,9.0,12.0,61,0.00,,,0.00,1030.0,meteohub,2013-06-13 17:27:00,
2013-06-13 13:32:00,87.8,74.1,29.55,SW,234,2.0,15.0,61,0.00,,,0.00,357.0,meteohub,2013-06-13 17:32:00,
2013-06-13 13:40:00,86.0,74.1,29.61,West,272,20.0,20.0,65,0.00,,,0.00,21.0,meteohub,2013-06-13 17:40:00,
2013-06-13 14:06:00,68.9,64.9,29.59,West,269,0.0,29.0,84,0.13,,,0.12,74.0,meteohub,2013-06-13 18:06:00,
2013-06-13 14:12:00,68.9,65.8,29.57,West,272,0.0,12.0,87,0.13,,,0.13,148.0,meteohub,2013-06-13 18:12:00,
2013-06-13 14:17:00,69.1,66.7,29.56,NW,311,5.0,8.0,89,0.14,,,0.14,279.0,meteohub,2013-06-13 18:17:00,
2013-06-13 14:22:00,69.8,67.1,29.57,NW,305,0.0,11.0,88,0.15,,,0.15,132.0,meteohub,2013-06-13 18:22:00,
2013-06-13 14:27:00,70.2,67.6,29.57,WNW,292,2.0,11.0,89,0.15,,,0.15,86.0,meteohub,2013-06-13 18:27:00,
2013-06-13 14:32:00,70.3,67.8,29.56,WNW,291,1.0,11.0,89,0.15,,,0.15,53.0,meteohub,2013-06-13 18:32:00,
2013-06-13 14:37:00,70.5,68.0,29.55,WNW,295,0.0,9.0,89,0.16,,,0.16,42.0,meteohub,2013-06-13 18:37:00,
2013-06-13 14:42:00,70.2,67.6,29.56,WNW,295,0.0,9.0,89,0.15,,,0.16,30.0,meteohub,2013-06-13 18:42:00,
2013-06-13 14:47:00,70.2,68.0,29.56,WNW,295,0.0,9.0,90,0.12,,,0.17,23.0,meteohub,2013-06-13 18:47:00,
2013-06-13 14:55:00,70.2,68.0,29.57,SSE,167,1.0,2.0,90,0.09,,,0.17,25.0,meteohub,2013-06-13 18:55:00,
2013-06-13 15:01:00,70.0,67.8,29.57,SE,142,2.0,4.0,90,0.06,,,0.18,16.0,meteohub,2013-06-13 19:01:00,
2013-06-13 15:07:00,70.0,67.8,29.57,WSW,237,2.0,6.0,90,0.05,,,0.18,14.0,meteohub,2013-06-13 19:07:00,
2013-06-13 15:13:00,70.3,67.8,29.58,West,279,4.0,8.0,89,0.05,,,0.19,5.0,meteohub,2013-06-13 19:13:00,
2013-06-13 15:19:00,70.3,67.8,29.59,SSW,193,3.0,11.0,89,0.04,,,0.19,25.0,meteohub,2013-06-13 19:19:00,
2013-06-13 15:25:00,70.3,67.8,29.58,NNE,26,0.0,11.0,89,0.05,,,0.20,35.0,meteohub,2013-06-13 19:25:00,
2013-06-13 15:31:00,70.3,67.8,29.59,West,267,0.0,7.0,89,0.05,,,0.21,33.0,meteohub,2013-06-13 19:31:00,
2013-06-13 15:37:00,70.2,68.0,29.60,West,269,0.0,6.0,90,0.05,,,0.21,12.0,meteohub,2013-06-13 19:37:00,
2013-06-13 15:42:00,70.0,67.5,29.60,SSW,194,2.0,5.0,89,0.05,,,0.21,7.0,meteohub,2013-06-13 19:42:00,
2013-06-13 15:47:00,70.0,67.3,29.60,WSW,246,0.0,9.0,88,0.05,,,0.22,5.0,meteohub,2013-06-13 19:47:00,
2013-06-13 15:52:00,70.0,67.3,29.60,ESE,117,0.0,9.0,88,0.05,,,0.22,5.0,meteohub,2013-06-13 19:52:00,
2013-06-13 15:57:00,69.8,67.3,29.60,South,177,0.0,9.0,89,0.05,,,0.23,5.0,meteohub,2013-06-13 19:57:00,
2013-06-13 16:02:00,69.8,67.3,29.60,East,97,3.0,8.0,89,0.05,,,0.23,7.0,meteohub,2013-06-13 20:02:00,
2013-06-13 16:07:00,69.6,67.1,29.58,SE,138,0.0,8.0,89,0.04,,,0.23,7.0,meteohub,2013-06-13 20:07:00,
2013-06-13 16:12:00,69.6,67.5,29.57,SW,236,0.0,4.0,90,0.04,,,0.23,11.0,meteohub,2013-06-13 20:12:00,
2013-06-13 16:17:00,69.4,66.9,29.57,SE,132,4.0,4.0,89,0.05,,,0.24,16.0,meteohub,2013-06-13 20:17:00,
2013-06-13 16:22:00,69.3,67.1,29.56,ESE,109,1.0,4.0,90,0.04,,,0.24,25.0,meteohub,2013-06-13 20:22:00,
2013-06-13 16:27:00,69.3,67.1,29.55,ESE,109,0.0,4.0,90,0.04,,,0.25,40.0,meteohub,2013-06-13 20:27:00,
2013-06-13 16:32:00,69.3,67.1,29.56,SSE,165,2.0,4.0,90,0.04,,,0.25,56.0,meteohub,2013-06-13 20:32:00,
2013-06-13 16:37:00,69.1,66.9,29.55,South,177,0.0,6.0,90,0.04,,,0.25,72.0,meteohub,2013-06-13 20:37:00,
2013-06-13 16:42:00,69.1,66.7,29.55,NNE,32,1.0,6.0,89,0.03,,,0.25,79.0,meteohub,2013-06-13 20:42:00,
2013-06-13 16:47:00,69.1,66.7,29.55,West,277,0.0,6.0,89,0.03,,,0.25,88.0,meteohub,2013-06-13 20:47:00,
2013-06-13 16:52:00,69.1,66.9,29.54,West,277,1.0,5.0,90,0.03,,,0.25,86.0,meteohub,2013-06-13 20:52:00,
2013-06-13 16:57:00,69.1,66.9,29.54,West,277,1.0,5.0,90,0.02,,,0.25,90.0,meteohub,2013-06-13 20:57:00,
2013-06-13 17:02:00,69.3,67.1,29.54,West,277,0.0,3.0,90,0.03,,,0.26,105.0,meteohub,2013-06-13 21:02:00,
2013-06-13 17:07:00,69.1,66.9,29.54,West,278,1.0,2.0,90,0.03,,,0.26,111.0,meteohub,2013-06-13 21:07:00,
2013-06-13 17:12:00,69.1,66.9,29.54,West,281,0.0,4.0,90,0.02,,,0.26,118.0,meteohub,2013-06-13 21:12:00,
2013-06-13 17:17:00,69.1,66.9,29.54,SW,214,3.0,4.0,90,0.02,,,0.26,134.0,meteohub,2013-06-13 21:17:00,
2013-06-13 17:22:00,69.1,66.0,29.54,WNW,296,1.0,8.0,87,0.03,,,0.27,153.0,meteohub,2013-06-13 21:22:00,
2013-06-13 17:27:00,69.4,66.4,29.54,West,281,0.0,10.0,87,0.02,,,0.27,178.0,meteohub,2013-06-13 21:27:00,
2013-06-13 17:32:00,69.6,66.9,29.55,West,281,1.0,10.0,88,0.02,,,0.27,192.0,meteohub,2013-06-13 21:32:00,
2013-06-13 17:37:00,69.8,67.3,29.55,WSW,257,0.0,10.0,89,0.02,,,0.27,193.0,meteohub,2013-06-13 21:37:00,
2013-06-13 17:42:00,69.6,66.6,29.56,West,268,2.0,7.0,87,0.02,,,0.27,192.0,meteohub,2013-06-13 21:42:00,
2013-06-13 17:47:00,70.0,66.6,29.56,West,259,1.0,10.0,86,0.02,,,0.27,211.0,meteohub,2013-06-13 21:47:00,
2013-06-13 17:52:00,70.3,66.9,29.56,WNW,298,4.0,10.0,86,0.02,,,0.27,246.0,meteohub,2013-06-13 21:52:00,
2013-06-13 17:57:00,70.7,67.3,29.57,West,273,5.0,10.0,86,0.02,,,0.27,197.0,meteohub,2013-06-13 21:57:00,
2013-06-13 18:02:00,71.1,66.0,29.56,West,273,3.0,8.0,81,0.01,,,0.27,176.0,meteohub,2013-06-13 22:02:00,
2013-06-13 18:07:00,71.8,66.7,29.56,WNW,294,3.0,11.0,81,0.02,,,0.28,192.0,meteohub,2013-06-13 22:07:00,
2013-06-13 18:12:00,72.0,67.5,29.57,WNW,286,2.0,11.0,83,0.02,,,0.28,230.0,meteohub,2013-06-13 22:12:00,
2013-06-13 18:17:00,72.0,66.9,29.57,WNW,286,1.0,10.0,81,0.02,,,0.28,211.0,meteohub,2013-06-13 22:17:00,
2013-06-13 18:22:00,72.1,68.0,29.57,NW,304,3.0,10.0,84,0.01,,,0.28,195.0,meteohub,2013-06-13 22:22:00,
2013-06-13 18:27:00,72.1,67.1,29.57,West,277,6.0,10.0,81,0.01,,,0.28,169.0,meteohub,2013-06-13 22:27:00,
2013-06-13 18:32:00,72.5,68.0,29.57,West,271,1.0,7.0,83,0.01,,,0.28,139.0,meteohub,2013-06-13 22:32:00,
2013-06-13 18:37:00,72.3,67.5,29.56,West,271,0.0,7.0,82,0.01,,,0.28,160.0,meteohub,2013-06-13 22:37:00,
2013-06-13 18:42:00,72.3,67.5,29.55,SSW,210,0.0,7.0,82,0.02,,,0.29,216.0,meteohub,2013-06-13 22:42:00,
2013-06-13 18:47:00,72.5,67.6,29.56,WNW,283,1.0,6.0,82,0.02,,,0.29,123.0,meteohub,2013-06-13 22:47:00,
2013-06-13 18:52:00,72.3,67.8,29.56,West,277,0.0,6.0,83,0.02,,,0.29,109.0,meteohub,2013-06-13 22:52:00,
2013-06-13 18:57:00,72.3,67.5,29.56,WSW,248,0.0,6.0,82,0.02,,,0.29,123.0,meteohub,2013-06-13 22:57:00,
2013-06-13 19:02:00,72.5,68.0,29.56,WSW,248,0.0,4.0,83,0.02,,,0.29,274.0,meteohub,2013-06-13 23:02:00,
2013-06-13 19:07:00,72.7,67.3,29.56,WNW,292,1.0,4.0,80,0.01,,,0.29,84.0,meteohub,2013-06-13 23:07:00,
2013-06-13 19:12:00,72.7,68.2,29.57,WNW,292,0.0,4.0,83,0.01,,,0.29,81.0,meteohub,2013-06-13 23:12:00,
2013-06-13 19:17:00,72.5,68.4,29.57,West,267,0.0,3.0,84,0.01,,,0.29,79.0,meteohub,2013-06-13 23:17:00,
2013-06-13 19:22:00,72.5,68.7,29.57,SSW,194,0.0,2.0,85,0.01,,,0.29,72.0,meteohub,2013-06-13 23:22:00,
2013-06-13 19:27:00,72.3,68.5,29.57,SSW,194,0.0,1.0,85,0.01,,,0.29,84.0,meteohub,2013-06-13 23:27:00,
2013-06-13 19:32:00,72.3,68.9,29.58,SSW,194,0.0,1.0,86,0.01,,,0.29,88.0,meteohub,2013-06-13 23:32:00,
2013-06-13 19:37:00,72.0,68.2,29.58,SW,234,0.0,1.0,85,0.01,,,0.29,53.0,meteohub,2013-06-13 23:37:00,
2013-06-13 19:42:00,72.1,68.7,29.58,SW,234,0.0,3.0,86,0.00,,,0.29,42.0,meteohub,2013-06-13 23:42:00,
2013-06-13 19:47:00,72.0,68.5,29.58,SW,234,2.0,3.0,86,0.00,,,0.29,40.0,meteohub,2013-06-13 23:47:00,
2013-06-13 19:52:00,71.4,67.6,29.58,NNW,338,0.0,4.0,85,0.00,,,0.29,21.0,meteohub,2013-06-13 23:52:00,
2013-06-13 19:57:00,71.1,67.3,29.59,NNW,338,0.0,4.0,85,0.01,,,0.30,21.0,meteohub,2013-06-13 23:57:00,
2013-06-13 20:02:00,70.7,66.6,29.59,NNW,338,0.0,4.0,84,0.01,,,0.30,21.0,meteohub,2013-06-14 00:02:00,
2013-06-13 20:07:00,70.5,66.7,29.60,NNW,338,0.0,2.0,85,0.01,,,0.30,23.0,meteohub,2013-06-14 00:07:00,
2013-06-13 20:12:00,70.2,66.4,29.60,NW,308,3.0,3.0,85,0.01,,,0.30,16.0,meteohub,2013-06-14 00:12:00,
2013-06-13 20:17:00,70.0,65.7,29.60,WNW,303,0.0,8.0,83,0.01,,,0.30,14.0,meteohub,2013-06-14 00:17:00,
2013-06-13 20:22:00,70.0,65.8,29.60,NW,316,0.0,8.0,84,0.01,,,0.30,11.0,meteohub,2013-06-14 00:22:00,
2013-06-13 20:27:00,70.0,65.3,29.60,WNW,298,1.0,8.0,82,0.01,,,0.30,7.0,meteohub,2013-06-14 00:27:00,
2013-06-13 20:32:00,70.0,65.3,29.60,WNW,298,0.0,3.0,82,0.01,,,0.30,5.0,meteohub,2013-06-14 00:32:00,
2013-06-13 20:37:00,69.8,65.1,29.61,WNW,293,1.0,3.0,82,0.01,,,0.30,0.0,meteohub,2013-06-14 00:37:00,
2013-06-13 20:42:00,69.8,64.8,29.61,WNW,293,0.0,3.0,81,0.01,,,0.30,0.0,meteohub,2013-06-14 00:42:00,
2013-06-13 20:47:00,69.8,65.1,29.61,WNW,293,0.0,2.0,82,0.01,,,0.30,0.0,meteohub,2013-06-14 00:47:00,
2013-06-13 20:52:00,69.6,64.6,29.62,WNW,293,0.0,2.0,81,0.01,,,0.30,0.0,meteohub,2013-06-14 00:52:00,
2013-06-13 20:57:00,69.6,64.9,29.62,WNW,293,0.0,1.0,82,0.00,,,0.30,0.0,meteohub,2013-06-14 00:57:00,
2013-06-13 21:02:00,69.4,65.5,29.62,WNW,293,0.0,1.0,84,0.00,,,0.30,0.0,meteohub,2013-06-14 01:02:00,
2013-06-13 21:07:00,69.3,65.3,29.63,WSW,244,0.0,1.0,84,0.00,,,0.30,0.0,meteohub,2013-06-14 01:07:00,
2013-06-13 21:12:00,69.3,64.2,29.63,NE,53,1.0,5.0,81,0.00,,,0.30,0.0,meteohub,2013-06-14 01:12:00,
2013-06-13 21:17:00,69.4,64.0,29.64,NW,304,1.0,5.0,80,0.00,,,0.30,0.0,meteohub,2013-06-14 01:17:00,
2013-06-13 21:22:00,69.6,63.9,29.64,NNE,24,1.0,5.0,79,0.00,,,0.30,0.0,meteohub,2013-06-14 01:22:00,
2013-06-13 21:27:00,70.0,63.5,29.66,North,355,5.0,5.0,77,0.00,,,0.30,0.0,meteohub,2013-06-14 01:27:00,
2013-06-13 21:32:00,70.7,63.5,29.66,East,96,7.0,9.0,75,0.00,,,0.30,0.0,meteohub,2013-06-14 01:32:00,
2013-06-13 21:37:00,71.1,63.1,29.66,WNW,284,0.0,11.0,73,0.00,,,0.30,0.0,meteohub,2013-06-14 01:37:00,
2013-06-13 21:42:00,71.1,62.8,29.66,NNW,328,5.0,11.0,72,0.00,,,0.30,0.0,meteohub,2013-06-14 01:42:00,
2013-06-13 21:47:00,71.1,62.4,29.67,NNW,335,2.0,11.0,71,0.00,,,0.30,0.0,meteohub,2013-06-14 01:47:00,
2013-06-13 21:52:00,70.9,60.6,29.67,NE,56,2.0,11.0,67,0.01,,,0.31,0.0,meteohub,2013-06-14 01:52:00,
2013-06-13 21:57:00,70.9,60.6,29.68,NW,323,6.0,16.0,67,0.01,,,0.31,0.0,meteohub,2013-06-14 01:57:00,
2013-06-13 22:02:00,70.7,60.4,29.68,North,5,0.0,16.0,67,0.01,,,0.31,0.0,meteohub,2013-06-14 02:02:00,
2013-06-13 22:09:00,70.2,59.5,29.68,NNW,347,0.0,16.0,66,0.01,,,0.31,0.0,meteohub,2013-06-14 02:09:00,
2013-06-13 22:15:00,69.8,59.5,29.68,NE,53,2.0,11.0,67,0.01,,,0.31,0.0,meteohub,2013-06-14 02:15:00,
2013-06-13 22:21:00,69.4,59.2,29.68,NNW,327,3.0,5.0,67,0.01,,,0.31,0.0,meteohub,2013-06-14 02:21:00,
2013-06-13 22:27:00,69.1,59.7,29.68,NNW,348,0.0,5.0,69,0.01,,,0.31,0.0,meteohub,2013-06-14 02:27:00,
2013-06-13 22:32:00,68.7,59.0,29.68,NE,45,0.0,9.0,68,0.01,,,0.31,0.0,meteohub,2013-06-14 02:32:00,
2013-06-13 22:37:00,68.7,59.0,29.68,WNW,302,0.0,9.0,68,0.01,,,0.31,0.0,meteohub,2013-06-14 02:37:00,
2013-06-13 22:42:00,68.5,59.2,29.68,NW,309,0.0,6.0,69,0.01,,,0.31,0.0,meteohub,2013-06-14 02:42:00,
2013-06-13 22:47:00,68.2,58.8,29.68,NW,309,0.0,6.0,69,0.01,,,0.31,0.0,meteohub,2013-06-14 02:47:00,
2013-06-13 22:52:00,68.0,58.6,29.69,NNW,337,1.0,5.0,69,0.00,,,0.31,0.0,meteohub,2013-06-14 02:52:00,
2013-06-13 22:57:00,67.5,58.8,29.68,NNW,337,0.0,3.0,71,0.00,,,0.31,0.0,meteohub,2013-06-14 02:57:00,
2013-06-13 23:03:00,67.1,59.2,29.68,NNW,337,0.0,3.0,73,0.00,,,0.31,0.0,meteohub,2013-06-14 03:03:00,
2013-06-13 23:10:00,66.4,59.4,29.68,NNW,337,0.0,3.0,75,0.00,,,0.31,0.0,meteohub,2013-06-14 03:10:00,
2013-06-13 23:16:00,65.7,59.0,29.68,NNW,337,0.0,1.0,76,0.00,,,0.31,0.0,meteohub,2013-06-14 03:16:00,
2013-06-13 23:22:00,65.3,58.6,29.68,NNW,337,0.0,1.0,76,0.00,,,0.31,0.0,meteohub,2013-06-14 03:22:00,
2013-06-13 23:27:00,64.9,58.6,29.68,NNW,337,0.0,1.0,77,0.00,,,0.31,0.0,meteohub,2013-06-14 03:27:00,
2013-06-13 23:32:00,64.6,57.9,29.68,NNW,337,0.0,1.0,76,0.00,,,0.31,0.0,meteohub,2013-06-14 03:32:00,
2013-06-13 23:37:00,64.4,58.5,29.68,NNW,337,0.0,4.0,78,0.00,,,0.31,0.0,meteohub,2013-06-14 03:37:00,
2013-06-13 23:42:00,64.4,58.8,29.68,NNW,337,0.0,4.0,79,0.00,,,0.31,0.0,meteohub,2013-06-14 03:42:00,
2013-06-13 23:47:00,64.0,58.8,29.68,NNW,337,0.0,4.0,80,0.00,,,0.31,0.0,meteohub,2013-06-14 03:47:00,
2013-06-13 23:52:00,63.7,58.5,29.68,NNW,337,0.0,1.0,80,0.00,,,0.31,0.0,meteohub,2013-06-14 03:52:00,
2013-06-13 23:57:00,63.5,58.6,29.69,NNW,337,0.0,1.0,81,0.00,,,0.31,0.0,meteohub,2013-06-14 03:57:00,